createdAt,value
2018-07-04T00:00:39.887Z,77.21
2018-07-04T00:03:21.007Z,77.73
2018-07-04T00:06:00.978Z,77.49
2018-07-04T00:08:41.496Z,77.37
2018-07-04T00:11:22.566Z,78.02
2018-07-04T00:14:03.523Z,78.07
2018-07-04T00:16:44.924Z,77.95
2018-07-04T00:19:25.189Z,78.09
2018-07-04T00:22:06.893Z,78.13
2018-07-04T00:24:46.917Z,78.57
2018-07-04T00:27:26.920Z,78.36
2018-07-04T00:30:08.992Z,79.27
2018-07-04T00:32:48.993Z,79.74
2018-07-04T00:35:28.804Z,78.79
2018-07-04T00:38:08.857Z,79.09
2018-07-04T00:40:48.610Z,78.66
2018-07-04T00:43:28.727Z,79.27
2018-07-04T00:46:09.238Z,79.65
2018-07-04T00:48:49.447Z,79.83
2018-07-04T00:51:29.502Z,80.17
2018-07-04T00:54:11.050Z,79.56
2018-07-04T00:56:51.247Z,79.31
2018-07-04T00:59:32.575Z,80.22
2018-07-04T01:02:13.194Z,79.51
2018-07-04T01:04:53.808Z,79.74
2018-07-04T01:07:33.793Z,80.32
2018-07-04T01:10:13.905Z,80.46
2018-07-04T01:12:54.380Z,79.49
2018-07-04T01:15:34.694Z,80.50
2018-07-04T01:18:14.911Z,80.74
2018-07-04T01:21:00.035Z,80.20
2018-07-04T01:23:40.276Z,80.59
2018-07-04T01:26:20.560Z,80.05
2018-07-04T01:29:00.683Z,80.72
2018-07-04T01:31:40.948Z,81.33
2018-07-04T01:34:20.847Z,81.35
2018-07-04T01:37:01.827Z,80.71
2018-07-04T01:39:42.737Z,80.45
2018-07-04T01:42:22.754Z,81.02
2018-07-04T01:45:02.739Z,80.80
2018-07-04T01:47:43.541Z,81.02
2018-07-04T01:50:23.448Z,80.71
2018-07-04T01:53:03.518Z,80.68
2018-07-04T01:55:43.908Z,81.75
2018-07-04T01:58:24.186Z,80.96
2018-07-04T02:01:04.083Z,81.79
2018-07-04T02:03:44.477Z,81.48
2018-07-04T02:06:24.571Z,82.28
2018-07-04T02:09:05.579Z,82.04
2018-07-04T02:11:45.855Z,83.38
2018-07-04T02:14:26.802Z,83.88
2018-07-04T02:17:06.910Z,83.04
2018-07-04T02:19:46.708Z,82.15
2018-07-04T02:22:27.098Z,82.71
2018-07-04T02:25:07.491Z,82.56
2018-07-04T02:27:47.475Z,83.09
2018-07-04T02:30:27.628Z,82.97
2018-07-04T02:33:07.769Z,82.88
2018-07-04T02:35:47.582Z,83.42
2018-07-04T02:38:27.894Z,83.14
2018-07-04T02:41:08.343Z,82.24
2018-07-04T02:43:48.286Z,82.19
2018-07-04T02:46:33.468Z,83.43
2018-07-04T02:49:13.460Z,83.35
2018-07-04T02:51:53.396Z,83.67
2018-07-04T02:54:33.701Z,83.46
2018-07-04T02:57:13.722Z,84.05
2018-07-04T02:59:53.999Z,84.22
2018-07-04T03:02:34.022Z,84.77
2018-07-04T03:05:13.854Z,84.07
2018-07-04T03:07:54.111Z,85.06
2018-07-04T03:10:36.101Z,84.03
2018-07-04T03:13:16.106Z,84.25
2018-07-04T03:15:55.844Z,83.68
2018-07-04T03:18:35.771Z,84.10
2018-07-04T03:21:15.595Z,85.18
2018-07-04T03:23:55.459Z,85.30
2018-07-04T03:26:35.322Z,84.59
2018-07-04T03:29:15.286Z,84.76
2018-07-04T03:31:55.254Z,84.76
2018-07-04T03:34:35.670Z,84.40
2018-07-04T03:37:15.762Z,84.26
2018-07-04T03:39:55.801Z,84.07
2018-07-04T03:42:35.767Z,85.23
2018-07-04T03:45:15.631Z,85.14
2018-07-04T03:47:55.568Z,85.44
2018-07-04T03:50:35.677Z,85.78
2018-07-04T03:53:15.715Z,85.50
2018-07-04T03:55:56.770Z,85.82
2018-07-04T03:58:36.909Z,84.89
2018-07-04T04:01:17.007Z,84.60
2018-07-04T04:03:58.589Z,86.05
2018-07-04T04:06:39.289Z,85.73
2018-07-04T04:09:19.331Z,85.07
2018-07-04T04:11:59.225Z,86.08
2018-07-04T04:14:39.481Z,86.33
2018-07-04T04:17:19.788Z,87.01
2018-07-04T04:19:59.621Z,87.06
2018-07-04T04:22:39.903Z,86.90
2018-07-04T04:25:19.867Z,86.22
2018-07-04T04:27:59.855Z,86.04
2018-07-04T04:30:40.055Z,85.58
2018-07-04T04:33:20.108Z,86.14
2018-07-04T04:36:01.092Z,84.80
2018-07-04T04:38:41.250Z,85.35
2018-07-04T04:41:22.240Z,84.67
2018-07-04T04:44:02.451Z,85.16
2018-07-04T04:46:42.658Z,84.50
2018-07-04T04:49:22.684Z,83.32
2018-07-04T04:52:02.825Z,81.45
2018-07-04T04:54:43.089Z,82.24
2018-07-04T04:57:23.440Z,81.84
2018-07-04T05:00:03.549Z,81.12
2018-07-04T05:02:43.605Z,80.27
2018-07-04T05:05:24.530Z,78.53
2018-07-04T05:08:04.695Z,78.75
2018-07-04T05:10:45.127Z,78.48
2018-07-04T05:13:25.487Z,79.00
2018-07-04T05:16:05.447Z,79.38
2018-07-04T05:18:46.540Z,79.07
2018-07-04T05:21:26.571Z,80.24
2018-07-04T05:24:06.722Z,78.95
2018-07-04T05:26:46.616Z,77.84
2018-07-04T05:29:26.677Z,78.29
2018-07-04T05:32:06.795Z,78.82
2018-07-04T05:34:46.803Z,78.62
2018-07-04T05:37:27.002Z,79.01
2018-07-04T05:40:07.234Z,79.11
2018-07-04T05:42:47.519Z,78.24
2018-07-04T05:45:27.867Z,77.66
2018-07-04T05:48:07.931Z,76.42
2018-07-04T05:50:48.178Z,75.19
2018-07-04T05:53:28.511Z,72.08
2018-07-04T05:56:08.488Z,71.04
2018-07-04T05:58:48.580Z,69.47
2018-07-04T06:01:28.515Z,68.21
2018-07-04T06:04:08.958Z,66.86
2018-07-04T06:06:49.455Z,69.92
2018-07-04T06:09:29.783Z,68.28
2018-07-04T06:12:09.845Z,69.07
2018-07-04T06:14:50.217Z,72.88
2018-07-04T06:17:30.457Z,72.27
2018-07-04T06:20:10.802Z,70.88
2018-07-04T06:22:51.077Z,69.70
2018-07-04T06:25:31.649Z,70.35
2018-07-04T06:28:12.123Z,69.16
2018-07-04T06:30:52.416Z,67.07
2018-07-04T06:33:32.453Z,66.18
2018-07-04T06:36:12.983Z,65.84
2018-07-04T06:38:40.640Z,66.28
2018-07-04T06:41:08.279Z,66.04
2018-07-04T06:43:36.273Z,65.72
2018-07-04T06:46:04.063Z,63.73
2018-07-04T06:48:31.879Z,64.33
2018-07-04T06:50:59.780Z,63.64
2018-07-04T06:53:27.583Z,62.14
2018-07-04T06:55:55.535Z,62.25
2018-07-04T06:58:23.489Z,61.78
2018-07-04T07:00:51.465Z,62.34
2018-07-04T07:03:32.281Z,63.99
2018-07-04T07:06:12.360Z,60.09
2018-07-04T07:08:52.229Z,59.27
2018-07-04T07:11:32.565Z,60.26
2018-07-04T07:14:12.841Z,59.09
2018-07-04T07:16:53.045Z,59.75
2018-07-04T07:19:33.039Z,59.31
2018-07-04T07:22:12.965Z,61.61
2018-07-04T07:24:53.597Z,59.22
2018-07-04T07:27:34.141Z,61.61
2018-07-04T07:30:14.084Z,61.90
2018-07-04T07:32:55.777Z,61.21
2018-07-04T07:35:35.999Z,60.67
2018-07-04T07:38:15.998Z,60.99
2018-07-04T07:40:56.308Z,61.74
2018-07-04T07:43:36.603Z,62.92
2018-07-04T07:46:16.970Z,61.17
2018-07-04T07:48:56.930Z,62.42
2018-07-04T07:51:37.030Z,61.12
2018-07-04T07:54:18.368Z,61.19
2018-07-04T07:56:58.255Z,60.09
2018-07-04T07:59:38.433Z,59.23
2018-07-04T08:02:18.685Z,60.27
2018-07-04T08:04:58.760Z,59.31
2018-07-04T08:07:38.992Z,59.15
2018-07-04T08:10:19.361Z,58.00
2018-07-04T08:13:00.350Z,58.21
2018-07-04T08:15:40.621Z,57.53
2018-07-04T08:18:21.471Z,56.91
2018-07-04T08:21:01.747Z,56.84
2018-07-04T08:23:41.783Z,59.03
2018-07-04T08:26:22.079Z,58.52
2018-07-04T08:29:02.193Z,59.20
2018-07-04T08:31:42.479Z,56.98
2018-07-04T08:34:23.032Z,56.60
2018-07-04T08:37:03.090Z,57.73
2018-07-04T08:39:43.328Z,55.36
2018-07-04T08:42:23.523Z,55.67
2018-07-04T08:45:03.643Z,56.15
2018-07-04T08:47:44.030Z,54.46
2018-07-04T08:50:24.397Z,52.89
2018-07-04T08:53:05.448Z,55.12
2018-07-04T08:55:45.512Z,52.02
2018-07-04T08:58:25.921Z,54.06
2018-07-04T09:01:06.124Z,53.62
2018-07-04T09:03:46.488Z,52.87
2018-07-04T09:06:26.569Z,51.97
2018-07-04T09:09:06.493Z,51.07
2018-07-04T09:11:46.906Z,44.21
2018-07-04T09:14:26.799Z,44.92
2018-07-04T09:17:06.867Z,44.77
2018-07-04T09:19:47.356Z,44.43
2018-07-04T09:22:27.642Z,42.61
2018-07-04T09:25:07.866Z,40.50
2018-07-04T09:27:47.822Z,41.53
2018-07-04T09:30:28.243Z,40.77
2018-07-04T09:33:08.591Z,40.35
2018-07-04T09:35:48.961Z,40.67
2018-07-04T09:38:29.085Z,42.51
2018-07-04T09:41:09.059Z,42.37
2018-07-04T09:43:49.736Z,40.37
2018-07-04T09:46:30.267Z,41.57
2018-07-04T09:49:10.473Z,42.22
2018-07-04T09:51:50.475Z,41.09
2018-07-04T09:54:30.784Z,40.47
2018-07-04T09:57:11.790Z,41.30
2018-07-04T09:59:52.726Z,36.29
2018-07-04T10:02:32.846Z,39.44
2018-07-04T10:05:13.033Z,38.70
2018-07-04T10:07:53.116Z,39.14
2018-07-04T10:10:33.331Z,39.36
2018-07-04T10:13:13.788Z,39.55
2018-07-04T10:15:54.092Z,35.86
2018-07-04T10:18:34.112Z,37.85
2018-07-04T10:21:14.774Z,40.08
2018-07-04T10:23:54.731Z,39.19
2018-07-04T10:26:34.796Z,37.40
2018-07-04T10:29:15.140Z,38.62
2018-07-04T10:31:55.205Z,40.45
2018-07-04T10:34:35.729Z,40.98
2018-07-04T10:37:15.810Z,41.60
2018-07-04T10:39:56.052Z,39.38
2018-07-04T10:42:36.191Z,39.46
2018-07-04T10:45:16.293Z,39.84
2018-07-04T10:47:56.353Z,37.60
2018-07-04T10:50:36.386Z,38.24
2018-07-04T10:53:17.826Z,39.05
2018-07-04T10:55:57.574Z,39.77
2018-07-04T10:58:37.663Z,38.92
2018-07-04T11:01:17.895Z,37.82
2018-07-04T11:03:58.385Z,37.42
2018-07-04T11:06:38.655Z,34.45
2018-07-04T11:09:19.752Z,38.12
2018-07-04T11:11:59.902Z,39.25
2018-07-04T11:14:40.234Z,38.71
2018-07-04T11:17:20.467Z,35.83
2018-07-04T11:20:00.940Z,36.01
2018-07-04T11:22:41.416Z,35.13
2018-07-04T11:25:21.897Z,34.20
2018-07-04T11:28:02.297Z,35.52
2018-07-04T11:30:42.603Z,36.20
2018-07-04T11:33:22.950Z,35.61
2018-07-04T11:36:03.257Z,35.68
2018-07-04T11:38:44.414Z,34.79
2018-07-04T11:41:25.065Z,33.42
2018-07-04T11:44:05.506Z,32.79
2018-07-04T11:46:33.203Z,33.70
2018-07-04T11:49:02.071Z,34.04
2018-07-04T11:51:30.747Z,34.56
2018-07-04T11:53:58.464Z,33.68
2018-07-04T11:56:26.052Z,34.01
2018-07-04T11:58:53.638Z,33.04
2018-07-04T12:01:22.153Z,31.42
2018-07-04T12:04:02.975Z,32.58
2018-07-04T12:06:43.629Z,32.51
2018-07-04T12:09:11.337Z,32.28
2018-07-04T12:11:38.892Z,33.67
2018-07-04T12:14:07.777Z,33.88
2018-07-04T12:16:35.599Z,35.03
2018-07-04T12:19:03.111Z,32.81
2018-07-04T12:21:30.641Z,33.86
2018-07-04T12:23:58.333Z,31.87
2018-07-04T12:26:25.852Z,33.82
2018-07-04T12:28:53.430Z,33.87
2018-07-04T12:31:20.948Z,34.52
2018-07-04T12:33:48.565Z,35.00
2018-07-04T12:36:16.263Z,34.95
2018-07-04T12:38:43.840Z,32.18
2018-07-04T12:41:11.390Z,34.12
2018-07-04T12:43:39.059Z,33.85
2018-07-04T12:46:06.918Z,33.56
2018-07-04T12:48:34.676Z,33.04
2018-07-04T12:51:03.510Z,34.34
2018-07-04T12:53:31.411Z,35.06
2018-07-04T12:56:11.470Z,34.72
2018-07-04T12:58:51.555Z,33.57
2018-07-04T13:01:31.531Z,33.83
2018-07-04T13:04:11.523Z,34.64
2018-07-04T13:06:51.414Z,33.31
2018-07-04T13:09:31.386Z,33.42
2018-07-04T13:12:11.517Z,31.59
2018-07-04T13:14:52.417Z,34.56
2018-07-04T13:17:33.055Z,33.58
2018-07-04T13:20:13.598Z,31.65
2018-07-04T13:22:54.404Z,31.90
2018-07-04T13:25:35.118Z,31.82
2018-07-04T13:28:15.183Z,32.52
2018-07-04T13:30:55.037Z,33.21
2018-07-04T13:33:35.814Z,32.17
2018-07-04T13:36:17.407Z,32.57
2018-07-04T13:38:57.384Z,35.03
2018-07-04T13:41:37.484Z,34.08
2018-07-04T13:44:17.837Z,36.17
2018-07-04T13:46:57.897Z,34.17
2018-07-04T13:49:38.359Z,32.76
2018-07-04T13:52:19.502Z,33.90
2018-07-04T13:55:01.233Z,32.49
2018-07-04T13:57:41.577Z,32.25
2018-07-04T14:00:22.124Z,31.03
2018-07-04T14:03:02.894Z,29.57
2018-07-04T14:05:44.478Z,32.15
2018-07-04T14:08:24.464Z,31.56
2018-07-04T14:11:04.986Z,32.72
2018-07-04T14:13:45.085Z,33.08
2018-07-04T14:16:25.284Z,30.68
2018-07-04T14:19:05.303Z,30.99
2018-07-04T14:21:45.459Z,32.85
2018-07-04T14:24:25.700Z,33.18
2018-07-04T14:27:05.745Z,30.41
2018-07-04T14:29:47.070Z,31.06
2018-07-04T14:32:27.550Z,33.44
2018-07-04T14:35:08.210Z,33.65
2018-07-04T14:37:48.870Z,32.22
2018-07-04T14:40:29.324Z,31.75
2018-07-04T14:43:09.657Z,33.05
2018-07-04T14:45:50.141Z,35.09
2018-07-04T14:48:30.584Z,33.17
2018-07-04T14:51:10.883Z,31.75
2018-07-04T14:53:51.712Z,31.83
2018-07-04T14:56:32.227Z,32.97
2018-07-04T14:59:12.256Z,32.40
2018-07-04T15:01:52.600Z,30.88
2018-07-04T15:04:33.092Z,30.94
2018-07-04T15:07:13.650Z,31.35
2018-07-04T15:09:53.943Z,32.56
2018-07-04T15:12:34.046Z,33.50
2018-07-04T15:15:14.727Z,33.95
2018-07-04T15:17:55.453Z,32.92
2018-07-04T15:20:35.768Z,32.84
2018-07-04T15:23:17.173Z,33.21
2018-07-04T15:25:58.026Z,35.34
2018-07-04T15:28:37.891Z,37.04
2018-07-04T15:31:18.053Z,35.81
2018-07-04T15:33:58.584Z,39.16
2018-07-04T15:36:38.574Z,41.35
2018-07-04T15:39:20.699Z,43.85
2018-07-04T15:42:01.490Z,43.66
2018-07-04T15:44:41.170Z,43.36
2018-07-04T15:47:20.973Z,44.53
2018-07-04T15:50:00.846Z,45.53
2018-07-04T15:52:41.755Z,45.12
2018-07-04T15:55:22.281Z,45.99
2018-07-04T15:58:02.723Z,46.18
2018-07-04T16:00:42.967Z,47.15
2018-07-04T16:03:23.215Z,47.56
2018-07-04T16:06:03.148Z,46.79
2018-07-04T16:08:43.040Z,47.47
2018-07-04T16:11:22.944Z,48.63
2018-07-04T16:14:03.297Z,48.46
2018-07-04T16:16:43.281Z,48.20
2018-07-04T16:19:24.068Z,51.30
2018-07-04T16:22:04.628Z,51.67
2018-07-04T16:24:44.575Z,53.11
2018-07-04T16:27:25.256Z,51.83
2018-07-04T16:30:05.742Z,52.31
2018-07-04T16:32:46.063Z,53.72
2018-07-04T16:35:25.985Z,54.11
2018-07-04T16:38:08.654Z,54.71
2018-07-04T16:40:50.009Z,54.27
2018-07-04T16:43:30.263Z,54.57
2018-07-04T16:46:12.084Z,57.13
2018-07-04T16:48:52.494Z,55.96
2018-07-04T16:51:32.885Z,55.31
2018-07-04T16:54:12.784Z,56.76
2018-07-04T16:56:54.321Z,55.65
2018-07-04T16:59:34.793Z,53.71
2018-07-04T17:02:14.923Z,56.47
2018-07-04T17:04:55.104Z,56.77
2018-07-04T17:07:35.825Z,56.48
2018-07-04T17:10:16.036Z,55.64
2018-07-04T17:12:56.186Z,55.63
2018-07-04T17:15:36.529Z,54.73
2018-07-04T17:18:17.562Z,54.21
2018-07-04T17:20:58.028Z,54.90
2018-07-04T17:23:38.348Z,57.21
2018-07-04T17:26:19.421Z,56.81
2018-07-04T17:29:01.041Z,57.21
2018-07-04T17:31:42.160Z,55.90
2018-07-04T17:34:22.494Z,56.17
2018-07-04T17:37:03.048Z,57.01
2018-07-04T17:39:43.585Z,57.17
2018-07-04T17:42:24.132Z,56.51
2018-07-04T17:45:05.819Z,56.80
2018-07-04T17:47:46.240Z,56.98
2018-07-04T17:50:26.923Z,58.39
2018-07-04T17:53:07.308Z,58.08
2018-07-04T17:55:48.473Z,60.06
2018-07-04T17:58:29.852Z,60.13
2018-07-04T18:01:09.991Z,58.07
2018-07-04T18:03:50.184Z,59.11
2018-07-04T18:06:30.545Z,60.29
2018-07-04T18:09:10.885Z,60.33
2018-07-04T18:11:51.258Z,60.42
2018-07-04T18:14:32.582Z,60.76
2018-07-04T18:17:13.218Z,62.38
2018-07-04T18:19:53.299Z,59.97
2018-07-04T18:22:33.534Z,60.81
2018-07-04T18:25:14.553Z,60.32
2018-07-04T18:27:54.910Z,60.53
2018-07-04T18:30:35.208Z,59.06
2018-07-04T18:33:15.555Z,59.91
2018-07-04T18:35:57.501Z,59.05
2018-07-04T18:38:37.622Z,60.54
2018-07-04T18:41:17.810Z,58.19
2018-07-04T18:43:58.143Z,54.58
2018-07-04T18:46:38.322Z,54.60
2018-07-04T18:49:18.632Z,56.23
2018-07-04T18:51:59.002Z,57.13
2018-07-04T18:54:39.475Z,58.50
2018-07-04T18:57:19.536Z,60.03
2018-07-04T19:00:00.202Z,61.12
2018-07-04T19:02:40.836Z,62.07
2018-07-04T19:05:20.840Z,62.87
2018-07-04T19:08:01.061Z,63.42
2018-07-04T19:10:41.132Z,64.09
2018-07-04T19:13:21.437Z,64.15
2018-07-04T19:16:01.791Z,63.47
2018-07-04T19:18:42.489Z,64.72
2018-07-04T19:21:23.117Z,64.26
2018-07-04T19:24:05.074Z,64.15
2018-07-04T19:26:46.142Z,64.41
2018-07-04T19:29:26.617Z,63.77
2018-07-04T19:32:06.665Z,61.61
2018-07-04T19:34:46.732Z,60.41
2018-07-04T19:37:27.114Z,61.31
2018-07-04T19:40:07.419Z,61.69
2018-07-04T19:42:47.712Z,62.68
2018-07-04T19:45:28.187Z,62.95
2018-07-04T19:48:09.000Z,61.08
2018-07-04T19:50:49.436Z,62.44
2018-07-04T19:53:29.954Z,62.59
2018-07-04T19:56:10.394Z,63.43
2018-07-04T19:58:50.661Z,63.85
2018-07-04T20:01:32.082Z,65.35
2018-07-04T20:04:12.337Z,64.88
2018-07-04T20:06:53.555Z,63.20
2018-07-04T20:09:34.050Z,62.81
2018-07-04T20:12:14.429Z,62.76
2018-07-04T20:14:54.855Z,63.68
2018-07-04T20:17:35.156Z,64.11
2018-07-04T20:20:15.920Z,64.73
2018-07-04T20:22:56.894Z,65.29
2018-07-04T20:25:37.328Z,66.47
2018-07-04T20:28:17.520Z,65.73
2018-07-04T20:30:57.718Z,66.58
2018-07-04T20:33:37.809Z,66.32
2018-07-04T20:36:18.282Z,66.73
2018-07-04T20:38:59.013Z,67.13
2018-07-04T20:41:39.358Z,66.34
2018-07-04T20:44:20.592Z,66.42
2018-07-04T20:47:00.963Z,68.06
2018-07-04T20:49:43.946Z,68.41
2018-07-04T20:52:25.030Z,69.21
2018-07-04T20:55:06.317Z,70.43
2018-07-04T20:57:46.700Z,69.95
2018-07-04T21:00:27.330Z,70.69
2018-07-04T21:03:08.204Z,70.57
2018-07-04T21:05:48.637Z,71.15
2018-07-04T21:08:29.070Z,71.45
2018-07-04T21:11:09.525Z,70.92
2018-07-04T21:13:50.026Z,70.84
2018-07-04T21:16:30.280Z,70.86
2018-07-04T21:19:11.835Z,71.75
2018-07-04T21:21:52.971Z,72.11
2018-07-04T21:24:33.280Z,71.41
2018-07-04T21:27:14.553Z,71.88
2018-07-04T21:29:54.767Z,72.64
2018-07-04T21:32:36.092Z,73.51
2018-07-04T21:35:16.472Z,72.88
2018-07-04T21:37:56.475Z,73.64
2018-07-04T21:40:36.601Z,74.12
2018-07-04T21:43:17.895Z,75.10
2018-07-04T21:45:58.012Z,75.04
2018-07-04T21:48:38.548Z,74.45
2018-07-04T21:51:18.717Z,75.51
2018-07-04T21:54:00.014Z,76.03
2018-07-04T21:56:40.565Z,76.30
2018-07-04T21:59:20.713Z,75.26
2018-07-04T22:02:01.568Z,76.87
2018-07-04T22:04:42.029Z,78.09
2018-07-04T22:07:23.738Z,78.04
2018-07-04T22:10:04.331Z,78.16
2018-07-04T22:12:44.691Z,78.45
2018-07-04T22:15:24.928Z,77.09
2018-07-04T22:18:06.421Z,77.23
2018-07-04T22:20:47.054Z,77.21
2018-07-04T22:23:28.022Z,77.54
2018-07-04T22:26:09.309Z,77.80
2018-07-04T22:28:49.705Z,77.87
2018-07-04T22:31:30.263Z,77.91
2018-07-04T22:34:10.571Z,78.68
2018-07-04T22:36:51.128Z,77.82
2018-07-04T22:39:31.416Z,78.08
2018-07-04T22:42:13.367Z,78.24
2018-07-04T22:44:54.108Z,78.42
2018-07-04T22:47:34.680Z,80.11
2018-07-04T22:50:15.125Z,79.63
2018-07-04T22:52:55.362Z,79.64
2018-07-04T22:55:36.680Z,79.61
2018-07-04T22:58:17.413Z,79.76
2018-07-04T23:00:58.723Z,79.69
2018-07-04T23:03:39.005Z,79.82
2018-07-04T23:06:19.586Z,80.15
2018-07-04T23:08:59.830Z,80.87
2018-07-04T23:11:40.524Z,81.07
2018-07-04T23:14:20.924Z,80.65
2018-07-04T23:17:01.294Z,80.50
2018-07-04T23:19:42.220Z,80.46
2018-07-04T23:22:23.810Z,80.98
2018-07-04T23:25:05.365Z,81.97
2018-07-04T23:27:46.030Z,81.95
2018-07-04T23:30:26.951Z,81.23
2018-07-04T23:33:07.262Z,81.09
2018-07-04T23:35:47.630Z,80.94
2018-07-04T23:38:27.606Z,81.54
2018-07-04T23:41:07.907Z,82.65
2018-07-04T23:43:48.343Z,81.96
2018-07-04T23:46:29.216Z,83.02
2018-07-04T23:49:09.677Z,82.74
2018-07-04T23:51:50.075Z,82.17
2018-07-04T23:54:30.443Z,80.97
2018-07-04T23:57:10.819Z,81.89
2018-07-04T23:59:51.676Z,82.41
